Time;durP1;ratioP1;P1;durP2;ratioP2;P2;SDS_P1;SDS_P2;PMS_P1;PMS_P2;Temp;Humidity;BMP_temperature;BMP_pressure;BME280_temperature;BME280_humidity;BME280_pressure;Samples;Min_cycle;Max_cycle;Signal;HPM_P1;HPM_P2
2023/12/03 00:00:32;;;;;;;44.40;24.50;;;3.60;99.90;;;;;;5087258;28;20067;-76
2023/12/03 00:02:58;;;;;;;57.20;24.98;;;4.80;99.90;;;;;;5061556;28;20047;-76
2023/12/03 00:05:24;;;;;;;57.03;27.55;;;3.80;99.90;;;;;;5032112;28;20079;-75
2023/12/03 00:07:50;;;;;;;52.92;26.38;;;4.10;99.90;;;;;;5088532;28;20097;-76
2023/12/03 00:10:19;;;;;;;59.33;27.02;;;4.80;99.90;;;;;;5091559;28;20126;-76
2023/12/03 00:12:45;;;;;;;52.83;25.83;;;3.90;99.90;;;;;;5089222;28;20125;-78
2023/12/03 00:15:11;;;;;;;57.33;25.30;;;3.80;99.90;;;;;;5090697;28;20043;-80
2023/12/03 00:17:36;;;;;;;60.15;28.05;;;4.90;99.90;;;;;;5071432;28;20067;-80
2023/12/03 00:20:03;;;;;;;54.05;26.92;;;4.80;99.90;;;;;;5074652;28;20133;-80
2023/12/03 00:22:29;;;;;;;53.35;25.67;;;3.70;99.90;;;;;;5058760;28;20050;-78
2023/12/03 00:24:54;;;;;;;57.80;28.17;;;4.80;99.90;;;;;;5039361;28;20044;-79
2023/12/03 00:27:20;;;;;;;47.95;25.98;;;4.50;99.90;;;;;;5073318;28;20377;-78
2023/12/03 00:29:46;;;;;;;52.72;25.38;;;3.60;99.90;;;;;;5059889;28;20044;-79
2023/12/03 00:32:12;;;;;;;47.38;22.85;;;4.70;99.90;;;;;;5071468;28;20105;-80
2023/12/03 00:34:37;;;;;;;49.90;22.38;;;3.50;99.90;;;;;;5054014;28;20036;-80
2023/12/03 00:37:03;;;;;;;42.47;21.50;;;4.50;99.90;;;;;;5039948;28;20055;-80
2023/12/03 00:39:29;;;;;;;36.08;19.17;;;4.20;99.90;;;;;;5055725;28;20373;-80
2023/12/03 00:41:54;;;;;;;38.95;20.63;;;4.00;99.90;;;;;;5059510;28;20114;-80
2023/12/03 00:44:21;;;;;;;37.58;20.73;;;3.70;99.90;;;;;;5060979;28;20037;-79
2023/12/03 00:46:47;;;;;;;40.33;20.77;;;4.40;99.90;;;;;;5084550;28;20040;-80
2023/12/03 00:49:13;;;;;;;41.20;20.48;;;3.50;99.90;;;;;;5089378;28;20463;-80
2023/12/03 00:51:38;;;;;;;43.28;21.17;;;4.00;99.90;;;;;;5053268;28;20052;-80
2023/12/03 00:54:04;;;;;;;35.58;19.55;;;4.20;99.90;;;;;;5054957;28;20105;-80
2023/12/03 00:56:30;;;;;;;38.17;19.92;;;3.10;99.90;;;;;;5075652;28;20041;-80
2023/12/03 00:58:55;;;;;;;37.20;20.90;;;3.10;99.90;;;;;;5081223;28;20040;-80
2023/12/03 01:01:21;;;;;;;43.50;20.88;;;3.00;99.90;;;;;;5054964;28;20510;-81
2023/12/03 01:03:47;;;;;;;39.40;20.48;;;3.70;99.90;;;;;;5056283;28;20587;-80
2023/12/03 01:06:13;;;;;;;48.17;21.95;;;3.90;99.90;;;;;;5081049;28;20044;-82
2023/12/03 01:08:39;;;;;;;43.78;21.52;;;3.90;99.90;;;;;;5069071;28;20040;-81
2023/12/03 01:11:05;;;;;;;48.70;22.48;;;2.90;99.90;;;;;;5057016;28;20044;-80
2023/12/03 01:13:31;;;;;;;47.10;23.17;;;4.10;99.90;;;;;;5084821;28;20139;-81
2023/12/03 01:15:57;;;;;;;46.00;21.85;;;4.20;99.90;;;;;;5070233;28;20123;-81
2023/12/03 01:18:23;;;;;;;40.65;20.75;;;3.80;99.90;;;;;;5056659;28;20044;-80
2023/12/03 01:20:48;;;;;;;38.40;20.90;;;3.80;99.90;;;;;;5073797;28;20059;-80
2023/12/03 01:23:14;;;;;;;38.88;20.02;;;3.60;99.90;;;;;;5085122;28;20032;-80
2023/12/03 01:25:40;;;;;;;36.55;19.92;;;3.00;99.90;;;;;;5052802;28;20040;-80
2023/12/03 01:28:06;;;;;;;38.58;20.40;;;3.60;99.90;;;;;;5056907;28;20143;-80
2023/12/03 01:30:32;;;;;;;33.65;19.60;;;3.90;99.90;;;;;;5060998;28;20090;-80
2023/12/03 01:32:58;;;;;;;36.03;19.75;;;3.00;99.90;;;;;;5085436;28;20048;-80
2023/12/03 01:35:23;;;;;;;34.95;19.65;;;3.90;99.90;;;;;;5084090;28;20097;-81
2023/12/03 01:37:49;;;;;;;37.95;20.83;;;3.00;99.90;;;;;;5052379;28;20098;-80
2023/12/03 01:40:15;;;;;;;44.08;20.67;;;2.80;99.90;;;;;;5054679;28;20040;-81
2023/12/03 01:42:41;;;;;;;39.65;19.80;;;2.70;99.90;;;;;;5073146;28;20037;-80
2023/12/03 01:45:07;;;;;;;38.47;19.50;;;2.70;99.90;;;;;;5061916;28;20035;-80
2023/12/03 01:47:33;;;;;;;36.67;20.27;;;3.70;99.90;;;;;;5047880;28;20033;-80
2023/12/03 01:50:05;;;;;;;46.47;23.25;;;2.70;99.90;;;;;;5067053;28;20695;-80
2023/12/03 01:52:31;;;;;;;52.22;24.67;;;3.80;99.90;;;;;;5082332;28;20048;-80
2023/12/03 01:54:58;;;;;;;46.58;23.23;;;2.90;99.90;;;;;;5082802;28;20085;-80
2023/12/03 01:57:24;;;;;;;38.22;21.55;;;2.90;99.90;;;;;;5082490;28;20044;-80
2023/12/03 01:59:50;;;;;;;40.60;20.75;;;2.70;99.90;;;;;;5074210;28;20085;-81
2023/12/03 02:02:16;;;;;;;44.17;21.05;;;3.60;99.90;;;;;;5066817;28;20036;-80
2023/12/03 02:04:42;;;;;;;36.00;20.23;;;2.80;99.90;;;;;;5087074;28;20411;-80
2023/12/03 02:07:08;;;;;;;35.83;19.23;;;3.00;99.90;;;;;;5066207;28;20028;-81
2023/12/03 02:09:34;;;;;;;35.20;19.17;;;3.70;99.90;;;;;;5074741;28;20045;-81
2023/12/03 02:12:00;;;;;;;30.95;17.20;;;2.80;99.90;;;;;;5052480;28;20108;-81
2023/12/03 02:14:25;;;;;;;36.95;19.45;;;3.80;99.90;;;;;;5055987;28;20056;-80
2023/12/03 02:16:51;;;;;;;37.88;20.33;;;3.40;99.90;;;;;;5069878;28;20043;-81
2023/12/03 02:19:17;;;;;;;35.55;21.25;;;3.80;99.90;;;;;;5081411;28;20047;-81
2023/12/03 02:21:43;;;;;;;36.65;20.90;;;3.90;99.90;;;;;;5060056;28;20138;-81
2023/12/03 02:24:08;;;;;;;31.75;19.58;;;3.70;99.90;;;;;;5056585;28;20044;-80
2023/12/03 02:26:34;;;;;;;37.90;20.75;;;3.70;99.90;;;;;;5067300;28;20047;-80
2023/12/03 02:29:00;;;;;;;44.78;23.33;;;3.50;99.90;;;;;;5061459;28;20134;-81
2023/12/03 02:31:29;;;;;;;51.60;26.13;;;3.00;99.90;;;;;;5068023;28;20416;-80
2023/12/03 02:34:11;;;;;;;35.60;22.70;;;3.70;99.90;;;;;;5073849;28;20086;-81
2023/12/03 02:36:37;;;;;;;36.72;20.40;;;3.00;99.90;;;;;;5072015;28;20040;-81
2023/12/03 02:39:04;;;;;;;41.92;22.45;;;3.00;99.90;;;;;;5097687;28;20066;-81
2023/12/03 02:41:29;;;;;;;36.92;22.10;;;3.60;99.90;;;;;;5066998;28;20048;-81
2023/12/03 02:43:55;;;;;;;35.80;20.55;;;3.60;99.90;;;;;;5067431;28;20067;-81
2023/12/03 02:46:21;;;;;;;38.00;20.85;;;3.00;99.90;;;;;;5058848;28;20044;-81
2023/12/03 02:48:47;;;;;;;34.00;19.05;;;3.90;99.90;;;;;;5065382;28;20845;-81
2023/12/03 02:51:13;;;;;;;30.08;18.85;;;2.80;99.90;;;;;;5041100;28;20123;-81
2023/12/03 02:53:39;;;;;;;28.98;18.08;;;3.60;99.90;;;;;;5057603;28;20115;-81
2023/12/03 02:56:06;;;;;;;30.98;18.23;;;3.60;99.90;;;;;;5042638;28;20180;-80
2023/12/03 02:58:32;;;;;;;27.70;16.98;;;3.60;99.90;;;;;;5066850;28;20036;-81
2023/12/03 03:00:58;;;;;;;28.67;16.98;;;2.60;99.90;;;;;;5078320;28;20036;-81
2023/12/03 03:03:24;;;;;;;25.65;16.60;;;2.70;99.90;;;;;;5054192;28;20155;-80
2023/12/03 03:05:50;;;;;;;24.92;17.05;;;2.90;99.90;;;;;;5069930;28;20036;-82
2023/12/03 03:08:15;;;;;;;28.75;16.88;;;3.70;99.90;;;;;;5067747;28;20036;-82
2023/12/03 03:10:41;;;;;;;24.00;14.70;;;3.60;99.90;;;;;;5064569;28;20043;-81
2023/12/03 03:13:08;;;;;;;26.70;16.50;;;3.40;99.90;;;;;;5069830;28;20048;-80
2023/12/03 03:15:34;;;;;;;22.95;14.10;;;2.80;99.90;;;;;;5057974;28;20442;-81
2023/12/03 03:18:00;;;;;;;26.02;15.15;;;3.80;99.90;;;;;;5077289;28;20075;-81
2023/12/03 03:20:27;;;;;;;24.63;15.60;;;3.00;99.90;;;;;;5036846;28;20059;-80
2023/12/03 03:22:59;;;;;;;21.50;15.02;;;3.80;99.90;;;;;;5049031;28;20079;-81
2023/12/03 03:25:25;;;;;;;24.67;13.80;;;4.00;99.90;;;;;;5069296;28;20445;-82
2023/12/03 03:27:50;;;;;;;18.02;13.32;;;3.40;99.90;;;;;;5070788;28;20097;-82
2023/12/03 03:30:16;;;;;;;20.02;13.18;;;3.80;99.90;;;;;;5079096;28;20036;-82
2023/12/03 03:32:42;;;;;;;20.70;14.13;;;3.00;99.90;;;;;;5063529;28;20036;-82
2023/12/03 03:35:08;;;;;;;20.33;13.88;;;2.80;99.90;;;;;;5056452;28;20040;-80
2023/12/03 03:37:34;;;;;;;18.60;13.07;;;3.60;99.90;;;;;;5056024;28;20676;-82
2023/12/03 03:39:59;;;;;;;23.88;14.85;;;3.70;99.90;;;;;;5065537;28;20094;-80
2023/12/03 03:42:25;;;;;;;19.00;13.45;;;3.90;99.90;;;;;;5088142;28;20094;-82
2023/12/03 03:44:51;;;;;;;21.52;13.32;;;3.10;99.90;;;;;;5053517;28;20436;-82
2023/12/03 03:47:16;;;;;;;17.38;12.52;;;3.90;99.90;;;;;;5050546;28;20123;-81
2023/12/03 03:49:42;;;;;;;25.15;16.25;;;3.90;99.90;;;;;;5071130;28;20097;-81
2023/12/03 03:52:08;;;;;;;17.67;13.40;;;3.10;99.90;;;;;;5068573;28;20389;-82
2023/12/03 03:54:41;;;;;;;22.60;14.98;;;3.70;99.90;;;;;;5053546;28;20431;-81
2023/12/03 03:57:07;;;;;;;17.73;13.18;;;3.20;99.90;;;;;;5071667;28;20145;-81
2023/12/03 03:59:32;;;;;;;22.13;14.98;;;3.00;99.90;;;;;;5071844;28;20040;-81
2023/12/03 04:01:58;;;;;;;19.40;13.50;;;3.50;99.90;;;;;;5083486;28;20037;-82
2023/12/03 04:04:24;;;;;;;24.05;15.80;;;2.60;99.90;;;;;;5088799;28;20475;-80
2023/12/03 04:06:50;;;;;;;25.95;16.00;;;3.10;99.90;;;;;;5048630;28;20044;-81
2023/12/03 04:09:15;;;;;;;23.63;15.20;;;2.70;99.90;;;;;;5072725;28;20497;-80
2023/12/03 04:11:42;;;;;;;23.33;15.80;;;3.30;99.90;;;;;;5056105;28;20046;-79
2023/12/03 04:14:10;;;;;;;22.67;15.30;;;3.00;99.90;;;;;;5070654;28;20451;-81
2023/12/03 04:16:36;;;;;;;24.80;17.92;;;3.30;99.90;;;;;;5045518;28;20048;-82
2023/12/03 04:19:02;;;;;;;19.92;15.18;;;2.60;99.90;;;;;;5049901;28;20411;-81
2023/12/03 04:21:29;;;;;;;20.42;13.93;;;3.60;99.90;;;;;;5081705;28;20040;-82
2023/12/03 04:23:57;;;;;;;26.00;16.17;;;2.70;99.90;;;;;;5067763;28;20115;-81
2023/12/03 04:26:23;;;;;;;23.33;16.63;;;3.50;99.90;;;;;;5043435;28;20093;-80
2023/12/03 04:28:49;;;;;;;25.58;17.45;;;2.90;99.90;;;;;;5080835;28;20119;-82
2023/12/03 04:31:19;;;;;;;23.67;16.75;;;3.70;99.90;;;;;;5057883;28;20452;-82
2023/12/03 04:33:45;;;;;;;21.88;15.90;;;2.60;99.90;;;;;;5084952;28;20043;-83
2023/12/03 04:36:12;;;;;;;20.77;15.15;;;3.00;99.90;;;;;;5047275;28;20043;-83
2023/12/03 04:38:38;;;;;;;19.90;15.23;;;2.70;99.90;;;;;;5047940;28;20032;-81
2023/12/03 04:41:04;;;;;;;30.90;18.77;;;3.50;99.90;;;;;;5055567;28;20040;-83
2023/12/03 04:43:29;;;;;;;38.03;20.10;;;3.30;99.90;;;;;;5060640;28;20399;-81
2023/12/03 04:45:55;;;;;;;102.80;26.52;;;2.90;99.90;;;;;;5029319;28;20040;-83
2023/12/03 04:48:22;;;;;;;113.97;24.73;;;2.80;99.90;;;;;;5068083;28;20032;-83
2023/12/03 04:50:48;;;;;;;175.60;28.98;;;2.90;99.90;;;;;;5042192;28;20044;-83
2023/12/03 04:53:13;;;;;;;184.38;32.50;;;2.90;99.90;;;;;;5083681;28;20045;-83
2023/12/03 04:55:39;;;;;;;176.32;34.60;;;3.80;99.90;;;;;;5078679;28;20051;-82
2023/12/03 04:58:05;;;;;;;156.07;36.78;;;3.30;99.90;;;;;;5061491;28;20056;-82
2023/12/03 05:00:31;;;;;;;180.68;38.85;;;3.40;99.90;;;;;;5049224;28;20054;-82
2023/12/03 05:02:56;;;;;;;198.07;43.22;;;2.40;99.90;;;;;;5044765;28;20045;-83
2023/12/03 05:05:22;;;;;;;180.20;43.28;;;3.50;99.90;;;;;;5053246;28;20036;-84
2023/12/03 05:07:48;;;;;;;212.13;46.83;;;2.80;99.90;;;;;;5058472;28;20040;-85
2023/12/03 05:10:13;;;;;;;210.40;45.95;;;2.60;99.90;;;;;;5034773;28;20039;-82
2023/12/03 05:12:39;;;;;;;187.07;47.63;;;3.50;99.90;;;;;;5049089;28;20445;-83
2023/12/03 05:15:05;;;;;;;305.20;59.60;;;3.30;99.90;;;;;;5066883;28;20786;-84
2023/12/03 05:17:31;;;;;;;309.00;60.72;;;2.70;99.90;;;;;;5069124;28;20032;-82
2023/12/03 05:19:57;;;;;;;306.65;61.67;;;3.30;99.90;;;;;;5042295;28;20391;-81
2023/12/03 05:22:22;;;;;;;488.25;76.32;;;3.10;99.90;;;;;;5083625;28;20448;-84
2023/12/03 05:24:48;;;;;;;456.83;75.88;;;2.90;99.90;;;;;;5035444;28;20072;-81
2023/12/03 05:27:14;;;;;;;660.10;85.57;;;3.70;99.90;;;;;;5030286;28;20043;-83
2023/12/03 05:29:43;;;;;;;431.77;74.88;;;2.90;99.90;;;;;;5037185;28;20051;-81
2023/12/03 05:32:10;;;;;;;498.52;76.97;;;3.80;99.90;;;;;;5082527;28;20045;-83
2023/12/03 05:34:45;;;;;;;435.40;76.60;;;3.70;99.90;;;;;;5054998;28;20130;-83
2023/12/03 05:37:12;;;;;;;447.85;79.78;;;3.90;99.90;;;;;;5067452;28;20111;-82
2023/12/03 05:39:41;;;;;;;633.28;95.90;;;3.60;99.90;;;;;;5059492;28;20097;-82
2023/12/03 05:42:07;;;;;;;553.53;90.55;;;4.00;99.90;;;;;;5054970;28;20044;-84
2023/12/03 05:44:33;;;;;;;578.25;93.82;;;3.50;99.90;;;;;;5048891;28;20048;-82
2023/12/03 05:47:00;;;;;;;647.17;100.20;;;4.10;99.90;;;;;;5077783;28;20051;-83
2023/12/03 05:49:26;;;;;;;564.58;94.63;;;3.20;99.90;;;;;;5045055;28;20131;-82
2023/12/03 05:51:52;;;;;;;578.80;97.47;;;3.90;99.90;;;;;;5053013;28;20447;-81
2023/12/03 05:54:17;;;;;;;548.40;92.85;;;3.50;99.90;;;;;;5079934;28;20036;-82
2023/12/03 05:56:46;;;;;;;509.08;93.65;;;4.10;99.90;;;;;;5063174;28;20043;-82
2023/12/03 05:59:12;;;;;;;506.60;87.07;;;4.30;99.90;;;;;;5069666;28;20094;-81
2023/12/03 06:01:38;;;;;;;511.67;89.10;;;3.50;99.90;;;;;;5040009;28;20040;-82
2023/12/03 06:04:08;;;;;;;424.23;81.53;;;4.60;99.90;;;;;;5069212;28;20041;-82
2023/12/03 06:06:35;;;;;;;455.45;82.20;;;3.50;99.90;;;;;;5060277;28;20044;-83
2023/12/03 06:09:03;;;;;;;488.40;85.70;;;3.70;99.90;;;;;;5061741;28;20036;-82
2023/12/03 06:11:29;;;;;;;388.65;75.25;;;3.50;99.90;;;;;;5080195;28;20869;-82
2023/12/03 06:13:57;;;;;;;244.82;56.90;;;4.60;99.90;;;;;;5070238;28;20127;-82
2023/12/03 06:16:24;;;;;;;430.85;74.45;;;4.20;99.90;;;;;;5081078;28;20128;-81
2023/12/03 06:18:49;;;;;;;244.23;54.63;;;3.90;99.90;;;;;;5061972;28;20071;-81
2023/12/03 06:21:15;;;;;;;411.60;69.43;;;4.90;99.90;;;;;;5077144;28;20070;-82
2023/12/03 06:23:41;;;;;;;424.73;69.90;;;4.90;99.90;;;;;;5063326;28;20044;-83
2023/12/03 06:26:07;;;;;;;461.10;73.72;;;4.60;99.90;;;;;;5061839;28;20967;-82
2023/12/03 06:28:33;;;;;;;384.25;66.60;;;4.90;99.90;;;;;;5067770;28;20115;-82
2023/12/03 06:30:59;;;;;;;364.30;63.00;;;4.60;99.90;;;;;;5060354;28;20040;-83
2023/12/03 06:33:25;;;;;;;373.38;66.53;;;4.00;99.90;;;;;;5049860;28;20044;-81
2023/12/03 06:35:53;;;;;;;345.17;59.38;;;5.10;99.90;;;;;;5061862;28;20039;-82
2023/12/03 06:38:19;;;;;;;420.88;65.85;;;4.00;99.90;;;;;;5078851;28;20443;-81
2023/12/03 06:40:44;;;;;;;289.83;57.58;;;4.80;99.90;;;;;;5075090;28;20043;-82
2023/12/03 06:43:10;;;;;;;371.13;61.47;;;5.20;99.90;;;;;;5069933;28;20055;-83
2023/12/03 06:45:37;;;;;;;365.50;58.47;;;4.10;99.90;;;;;;5057248;28;20045;-81
2023/12/03 06:48:03;;;;;;;398.70;58.00;;;5.20;99.90;;;;;;5050505;28;20381;-82
2023/12/03 06:50:29;;;;;;;406.88;60.60;;;4.40;99.90;;;;;;5058888;28;20445;-83
2023/12/03 06:52:55;;;;;;;423.70;60.30;;;5.30;99.90;;;;;;5050932;28;20082;-81
2023/12/03 06:55:21;;;;;;;321.98;55.35;;;4.20;99.90;;;;;;5067921;28;20060;-82
2023/12/03 06:57:47;;;;;;;287.55;51.28;;;5.40;99.90;;;;;;5062735;28;20058;-82
2023/12/03 07:00:13;;;;;;;378.35;56.72;;;4.40;99.90;;;;;;5064268;28;20086;-83
2023/12/03 07:02:39;;;;;;;304.25;49.83;;;4.80;99.90;;;;;;5058179;28;20040;-82
2023/12/03 07:05:05;;;;;;;296.95;50.95;;;4.90;99.90;;;;;;5058946;28;20051;-82
2023/12/03 07:07:31;;;;;;;273.70;47.97;;;5.30;99.90;;;;;;5056130;28;22118;-83
2023/12/03 07:09:58;;;;;;;321.67;47.30;;;4.10;99.90;;;;;;5041946;28;20078;-81
2023/12/03 07:12:24;;;;;;;292.15;45.33;;;5.30;99.90;;;;;;5044869;28;20123;-82
2023/12/03 07:14:50;;;;;;;227.00;41.90;;;5.60;99.90;;;;;;5054567;28;20552;-81
2023/12/03 07:17:16;;;;;;;230.52;44.22;;;5.00;99.90;;;;;;5062161;28;20051;-82
2023/12/03 07:19:45;;;;;;;246.10;46.33;;;4.40;99.90;;;;;;5057279;28;20039;-82
2023/12/03 07:22:11;;;;;;;202.95;38.75;;;4.80;99.90;;;;;;5054799;28;20058;-83
2023/12/03 07:24:38;;;;;;;191.38;40.72;;;5.40;99.90;;;;;;5082315;28;20488;-82
2023/12/03 07:27:05;;;;;;;279.42;45.45;;;5.20;99.90;;;;;;5086708;28;20474;-82
2023/12/03 07:29:31;;;;;;;215.15;39.83;;;4.30;99.90;;;;;;5057345;28;20049;-81
2023/12/03 07:31:56;;;;;;;277.73;47.55;;;4.30;99.90;;;;;;5048547;28;20044;-84
2023/12/03 07:34:22;;;;;;;174.45;37.13;;;4.30;99.90;;;;;;5070945;28;20048;-83
2023/12/03 07:36:48;;;;;;;291.70;45.10;;;5.50;99.90;;;;;;5054248;28;20118;-82
2023/12/03 07:39:14;;;;;;;279.08;45.20;;;5.40;99.90;;;;;;5063095;28;20063;-83
2023/12/03 07:41:39;;;;;;;243.90;42.13;;;4.50;99.90;;;;;;5049342;28;20036;-82
2023/12/03 07:44:05;;;;;;;292.95;44.15;;;4.30;99.90;;;;;;5068363;28;20048;-82
2023/12/03 07:46:34;;;;;;;278.33;43.58;;;5.00;99.90;;;;;;5054271;28;20040;-81
2023/12/03 07:49:01;;;;;;;267.70;41.05;;;5.40;99.90;;;;;;5055078;28;20041;-81
2023/12/03 07:51:29;;;;;;;251.70;40.35;;;5.40;99.90;;;;;;5074473;28;20047;-81
2023/12/03 07:53:57;;;;;;;174.15;36.97;;;5.60;99.90;;;;;;5086917;28;20040;-80
2023/12/03 07:56:32;;;;;;;211.10;38.95;;;4.90;99.90;;;;;;5081557;28;20047;-80
2023/12/03 07:58:58;;;;;;;227.77;38.90;;;4.50;99.90;;;;;;5082065;28;20075;-81
2023/12/03 08:01:24;;;;;;;246.30;42.47;;;4.50;99.90;;;;;;5060944;28;20090;-82
2023/12/03 08:03:49;;;;;;;239.68;39.60;;;4.80;99.90;;;;;;5068779;28;20131;-80
2023/12/03 08:06:15;;;;;;;255.57;39.83;;;5.20;99.90;;;;;;5034644;28;20040;-80
2023/12/03 08:08:41;;;;;;;142.00;36.08;;;5.30;99.90;;;;;;5087087;28;20039;-81
2023/12/03 08:11:07;;;;;;;189.02;36.45;;;4.40;99.90;;;;;;5076940;28;20079;-80
2023/12/03 08:13:33;;;;;;;178.85;36.10;;;4.60;99.90;;;;;;5057685;28;20447;-82
2023/12/03 08:15:58;;;;;;;177.18;36.50;;;4.50;99.90;;;;;;5048234;28;20032;-83
2023/12/03 08:18:24;;;;;;;182.80;36.97;;;4.60;99.90;;;;;;5052579;28;20118;-82
2023/12/03 08:20:50;;;;;;;144.00;32.85;;;4.50;99.90;;;;;;5037351;28;20162;-83
2023/12/03 08:23:16;;;;;;;229.85;39.88;;;6.00;99.90;;;;;;5053792;28;20071;-83
2023/12/03 08:25:41;;;;;;;181.82;38.33;;;4.70;99.90;;;;;;5049429;28;20047;-83
2023/12/03 08:28:07;;;;;;;170.20;37.28;;;5.90;99.90;;;;;;5058250;28;20048;-82
2023/12/03 08:30:33;;;;;;;203.85;38.50;;;5.70;99.90;;;;;;5033521;28;20040;-79
2023/12/03 08:32:58;;;;;;;168.98;35.88;;;5.40;99.90;;;;;;5056663;28;20032;-79
2023/12/03 08:35:24;;;;;;;134.70;32.63;;;4.50;99.90;;;;;;5061355;28;20041;-81
2023/12/03 08:37:50;;;;;;;139.27;32.45;;;4.70;99.90;;;;;;5056160;28;20107;-80
2023/12/03 08:40:16;;;;;;;128.45;33.03;;;5.90;99.90;;;;;;5050635;28;20043;-78
2023/12/03 08:42:44;;;;;;;123.65;32.75;;;5.70;99.90;;;;;;5082062;28;20074;-77
2023/12/03 08:45:09;;;;;;;136.85;34.65;;;5.80;99.90;;;;;;5057262;28;20118;-81
2023/12/03 08:47:35;;;;;;;172.50;36.72;;;5.80;99.90;;;;;;5048208;28;20123;-80
2023/12/03 08:50:01;;;;;;;121.15;33.38;;;5.30;99.90;;;;;;5057238;28;20043;-80
2023/12/03 08:52:27;;;;;;;103.15;30.65;;;4.60;99.90;;;;;;5064862;28;20110;-68
2023/12/03 08:54:52;;;;;;;104.03;28.30;;;5.90;99.90;;;;;;5067872;28;20055;-81
2023/12/03 08:57:18;;;;;;;101.03;28.77;;;6.00;99.90;;;;;;5078873;28;20032;-81
2023/12/03 08:59:47;;;;;;;97.22;28.98;;;4.70;99.90;;;;;;5056772;28;20468;-81
2023/12/03 09:02:12;;;;;;;111.13;30.25;;;5.30;99.90;;;;;;5057867;28;20133;-81
2023/12/03 09:04:38;;;;;;;122.93;32.35;;;4.60;99.90;;;;;;5066764;28;20044;-81
2023/12/03 09:07:04;;;;;;;113.10;30.67;;;5.10;99.90;;;;;;5069374;28;20484;-82
2023/12/03 09:09:30;;;;;;;134.82;35.03;;;6.20;99.90;;;;;;5053482;28;20099;-82
2023/12/03 09:11:55;;;;;;;121.40;31.95;;;4.60;99.90;;;;;;5055157;28;20040;-83
2023/12/03 09:14:22;;;;;;;104.55;32.15;;;6.10;99.90;;;;;;5033933;28;20045;-81
2023/12/03 09:16:47;;;;;;;110.40;31.33;;;6.40;99.90;;;;;;5058353;28;20063;-81
2023/12/03 09:19:13;;;;;;;105.13;32.15;;;6.20;99.90;;;;;;5054119;28;20036;-82
2023/12/03 09:21:39;;;;;;;98.30;31.73;;;6.10;99.90;;;;;;5055582;28;20047;-82
2023/12/03 09:24:05;;;;;;;108.78;31.80;;;6.20;99.90;;;;;;5065757;28;20145;-81
2023/12/03 09:26:31;;;;;;;97.55;31.48;;;6.30;99.90;;;;;;5032433;28;20396;-82
2023/12/03 09:28:56;;;;;;;102.78;32.45;;;6.40;99.90;;;;;;5053373;28;20033;-81
2023/12/03 09:31:22;;;;;;;102.43;32.85;;;6.20;99.90;;;;;;5033417;28;20071;-81
2023/12/03 09:33:48;;;;;;;93.05;30.23;;;6.50;99.90;;;;;;5052717;28;20093;-82
2023/12/03 09:36:13;;;;;;;95.97;32.58;;;4.80;99.90;;;;;;5026995;28;20040;-82
2023/12/03 09:38:39;;;;;;;78.57;29.60;;;5.10;99.90;;;;;;5054678;28;20107;-82
2023/12/03 09:41:10;;;;;;;85.55;30.92;;;6.60;99.90;;;;;;5056202;28;20488;-80
2023/12/03 09:43:39;;;;;;;80.70;31.40;;;6.40;99.90;;;;;;5055632;28;20411;-79
2023/12/03 09:46:10;;;;;;;98.90;35.28;;;6.70;99.90;;;;;;5060296;28;20139;-78
2023/12/03 09:48:43;;;;;;;81.47;32.28;;;5.40;99.90;;;;;;5076597;28;20044;-79
2023/12/03 09:51:11;;;;;;;81.93;31.70;;;6.10;99.90;;;;;;5074528;28;20127;-79
2023/12/03 09:53:44;;;;;;;72.32;30.73;;;5.30;99.90;;;;;;5060734;28;20039;-78
2023/12/03 09:56:11;;;;;;;73.80;29.27;;;6.60;99.90;;;;;;5062818;28;20518;-77
2023/12/03 09:58:38;;;;;;;69.22;30.42;;;5.10;99.90;;;;;;5046715;28;20040;-78
2023/12/03 10:01:04;;;;;;;63.70;29.40;;;5.10;99.90;;;;;;5084146;28;20058;-77
2023/12/03 10:03:30;;;;;;;82.28;31.95;;;5.90;99.90;;;;;;5042263;28;20040;-78
2023/12/03 10:05:56;;;;;;;77.13;31.33;;;6.80;99.90;;;;;;5037289;28;20066;-80
2023/12/03 10:08:23;;;;;;;68.80;30.42;;;6.60;99.90;;;;;;5061989;28;20036;-80
2023/12/03 10:11:02;;;;;;;69.85;32.20;;;6.90;99.90;;;;;;5062027;28;20052;-77
2023/12/03 10:13:30;;;;;;;67.40;31.52;;;6.80;99.90;;;;;;5073434;28;20459;-77
2023/12/03 10:15:56;;;;;;;63.67;32.20;;;6.00;99.90;;;;;;5084152;28;20044;-77
2023/12/03 10:18:22;;;;;;;61.22;30.90;;;5.20;99.90;;;;;;5059167;28;20430;-77
2023/12/03 10:20:48;;;;;;;58.50;31.02;;;5.40;99.90;;;;;;5062634;28;20101;-78
2023/12/03 10:23:15;;;;;;;57.22;30.23;;;7.10;99.90;;;;;;5066670;28;20104;-78
2023/12/03 10:25:41;;;;;;;57.25;31.42;;;6.40;99.90;;;;;;5061231;28;20131;-79
2023/12/03 10:28:11;;;;;;;53.08;30.13;;;5.50;99.90;;;;;;5066656;28;20115;-77
2023/12/03 10:30:37;;;;;;;56.38;31.17;;;6.20;99.90;;;;;;5080652;28;20040;-79
2023/12/03 10:33:04;;;;;;;60.22;31.98;;;6.50;99.90;;;;;;5061256;28;20122;-78
2023/12/03 10:35:36;;;;;;;59.08;32.15;;;6.50;99.90;;;;;;5062910;28;20126;-78
2023/12/03 10:38:07;;;;;;;48.83;29.00;;;6.90;99.90;;;;;;5073067;28;20059;-78
2023/12/03 10:40:33;;;;;;;51.53;30.60;;;7.10;99.90;;;;;;5064631;28;20044;-77
2023/12/03 10:43:01;;;;;;;48.45;30.00;;;6.20;99.90;;;;;;5055947;28;20043;-77
2023/12/03 10:45:28;;;;;;;46.05;30.13;;;7.00;99.90;;;;;;5078982;28;20040;-77
2023/12/03 10:48:00;;;;;;;47.10;28.88;;;8.30;99.90;;;;;;5079826;28;20032;-78
2023/12/03 10:50:28;;;;;;;43.05;29.52;;;6.90;99.90;;;;;;5067569;28;20044;-78
2023/12/03 10:52:58;;;;;;;42.08;28.90;;;8.50;99.90;;;;;;5049937;28;20431;-80
2023/12/03 10:55:24;;;;;;;40.30;28.45;;;8.00;99.90;;;;;;5067532;28;20047;-77
2023/12/03 10:58:03;;;;;;;39.95;28.67;;;7.00;99.90;;;;;;5061413;28;20560;-77
2023/12/03 11:01:05;;;;;;;40.00;27.73;;;8.10;99.90;;;;;;5074393;28;20090;-81
2023/12/03 11:03:51;;;;;;;38.95;29.00;;;8.60;99.90;;;;;;5056225;28;20450;-77
2023/12/03 11:06:17;;;;;;;35.63;25.75;;;7.40;99.90;;;;;;5074664;28;20434;-76
2023/12/03 11:08:46;;;;;;;40.33;29.10;;;8.30;99.90;;;;;;5079625;28;20044;-78
2023/12/03 11:11:13;;;;;;;38.70;28.05;;;8.50;99.90;;;;;;5083026;28;21673;-77
2023/12/03 11:13:42;;;;;;;39.00;28.50;;;7.00;99.90;;;;;;5058249;28;20057;-78
2023/12/03 11:16:10;;;;;;;37.08;28.05;;;6.90;99.90;;;;;;5080001;28;20043;-76
2023/12/03 11:18:42;;;;;;;36.70;28.23;;;7.50;99.90;;;;;;5080625;28;20041;-77
2023/12/03 11:21:33;;;;;;;35.00;26.27;;;7.50;99.90;;;;;;5064746;28;20044;-79
2023/12/03 11:24:47;;;;;;;36.28;27.80;;;6.90;99.90;;;;;;5079617;28;20040;-80
2023/12/03 11:27:13;;;;;;;36.22;27.60;;;6.80;99.90;;;;;;5019219;28;20052;-76
2023/12/03 11:29:55;;;;;;;36.20;27.42;;;6.60;99.90;;;;;;5082149;28;20037;-79
2023/12/03 11:32:24;;;;;;;39.15;29.38;;;6.90;99.90;;;;;;5066356;28;20480;-77
2023/12/03 11:35:01;;;;;;;36.67;28.02;;;7.10;99.90;;;;;;5083084;28;20036;-77
2023/12/03 11:37:28;;;;;;;38.85;28.60;;;6.60;99.90;;;;;;5081031;28;20051;-77
2023/12/03 11:39:56;;;;;;;37.83;28.42;;;7.20;99.90;;;;;;5063332;28;20076;-76
2023/12/03 11:42:25;;;;;;;37.58;28.83;;;7.10;99.90;;;;;;5079337;28;20044;-78
2023/12/03 11:45:18;;;;;;;38.35;28.85;;;6.60;99.90;;;;;;5065039;28;21077;-77
2023/12/03 11:48:07;;;;;;;40.05;29.80;;;7.40;99.90;;;;;;5083308;28;20048;-78
2023/12/03 11:50:35;;;;;;;37.35;29.40;;;6.50;99.90;;;;;;5081022;28;20043;-77
2023/12/03 11:53:03;;;;;;;39.85;29.55;;;6.90;99.90;;;;;;5061749;28;20042;-78
2023/12/03 11:55:33;;;;;;;38.65;30.42;;;6.30;99.90;;;;;;5079160;28;20049;-78
2023/12/03 11:57:58;;;;;;;37.50;30.67;;;6.30;99.90;;;;;;5078996;28;20036;-78
2023/12/03 12:00:24;;;;;;;42.38;32.42;;;6.80;99.90;;;;;;5062739;28;20052;-76
2023/12/03 12:02:51;;;;;;;38.53;29.52;;;6.10;99.90;;;;;;5087747;28;20032;-75
2023/12/03 12:05:18;;;;;;;40.47;32.60;;;6.30;99.90;;;;;;5083190;28;20044;-76
2023/12/03 12:07:55;;;;;;;39.47;30.80;;;6.30;99.90;;;;;;5058584;28;20496;-79
2023/12/03 12:10:21;;;;;;;39.78;31.88;;;6.60;99.90;;;;;;5082815;28;20048;-76
2023/12/03 12:12:47;;;;;;;36.95;28.45;;;6.60;99.90;;;;;;5078225;28;20044;-78
2023/12/03 12:15:13;;;;;;;37.85;30.50;;;5.90;99.90;;;;;;5066189;28;20051;-80
2023/12/03 12:17:40;;;;;;;38.22;29.27;;;5.80;99.90;;;;;;5067917;28;20052;-75
2023/12/03 12:20:07;;;;;;;36.55;27.33;;;5.70;99.90;;;;;;5060302;28;20040;-77
2023/12/03 12:22:33;;;;;;;37.17;29.95;;;6.20;99.90;;;;;;5057021;28;20427;-79
2023/12/03 12:24:58;;;;;;;38.10;28.95;;;6.20;99.90;;;;;;5086455;28;20071;-76
2023/12/03 12:27:26;;;;;;;36.40;28.30;;;5.80;99.90;;;;;;5067906;28;20047;-75
2023/12/03 12:29:51;;;;;;;35.28;26.90;;;5.70;99.90;;;;;;5069116;28;20040;-76
2023/12/03 12:32:17;;;;;;;36.63;26.63;;;6.30;99.90;;;;;;5061577;28;20216;-77